Time;durP1;ratioP1;P1;durP2;ratioP2;P2;SDS_P1;SDS_P2;PMS_P1;PMS_P2;Temp;Humidity;BMP_temperature;BMP_pressure;BME280_temperature;BME280_humidity;BME280_pressure;Samples;Min_cycle;Max_cycle;Signal;HPM_P1;HPM_P2
2022/11/29 00:01:26;;;;;;;11.30;4.65;;;;;;;5.13;100.00;101152.50;6222121;28;20042;-70
2022/11/29 00:04:28;;;;;;;10.60;5.68;;;;;;;5.12;100.00;101156.88;6221590;28;20072;-69
2022/11/29 00:07:29;;;;;;;12.13;5.15;;;;;;;5.13;100.00;101148.16;6221688;28;20514;-69
2022/11/29 00:10:35;;;;;;;11.93;5.55;;;;;;;5.13;100.00;101153.38;6221714;28;20054;-70
2022/11/29 00:13:37;;;;;;;16.17;6.50;;;;;;;5.11;100.00;101151.72;6222387;28;20061;-69
2022/11/29 00:16:39;;;;;;;13.75;5.63;;;;;;;5.11;100.00;101155.16;6222455;28;20509;-69
2022/11/29 00:19:41;;;;;;;12.90;5.25;;;;;;;5.08;100.00;101156.09;6245360;28;20046;-69
2022/11/29 00:22:42;;;;;;;15.55;6.80;;;;;;;5.06;100.00;101151.81;6246545;28;20512;-69
2022/11/29 00:25:45;;;;;;;11.80;5.90;;;;;;;5.02;100.00;101153.63;6245968;28;20056;-70
2022/11/29 00:28:46;;;;;;;13.57;6.53;;;;;;;5.04;100.00;101149.25;6246112;28;20053;-70
2022/11/29 00:31:48;;;;;;;12.50;5.78;;;;;;;5.04;100.00;101157.06;6246265;28;20053;-69
2022/11/29 00:34:49;;;;;;;13.95;5.30;;;;;;;5.08;100.00;101163.03;6245749;28;20049;-70
2022/11/29 00:37:50;;;;;;;10.32;5.45;;;;;;;5.11;100.00;101165.59;6246299;28;20049;-70
2022/11/29 00:40:53;;;;;;;12.13;5.72;;;;;;;5.09;100.00;101163.03;6246023;28;20501;-70
2022/11/29 00:43:55;;;;;;;12.00;5.50;;;;;;;5.09;100.00;101164.78;6245978;28;20049;-70
2022/11/29 00:46:56;;;;;;;11.60;5.30;;;;;;;5.05;100.00;101173.56;6245808;28;20060;-70
2022/11/29 00:49:57;;;;;;;19.92;6.30;;;;;;;5.06;100.00;101165.69;6245857;28;20046;-70
2022/11/29 00:52:59;;;;;;;12.85;5.57;;;;;;;5.07;100.00;101159.59;6245921;28;20056;-70
2022/11/29 00:56:03;;;;;;;10.45;5.30;;;;;;;5.08;100.00;101155.22;6245542;28;20053;-69
2022/11/29 00:59:05;;;;;;;13.15;5.63;;;;;;;5.12;100.00;101161.22;6245798;28;20045;-70
2022/11/29 01:02:06;;;;;;;12.07;5.78;;;;;;;5.08;100.00;101158.69;6245722;28;20050;-70
2022/11/29 01:05:08;;;;;;;13.18;5.63;;;;;;;5.10;100.00;101150.84;6245560;28;20054;-69
2022/11/29 01:08:10;;;;;;;16.45;6.32;;;;;;;5.06;100.00;101165.69;6246078;28;20418;-70
2022/11/29 01:11:15;;;;;;;13.25;5.85;;;;;;;5.07;100.00;101163.94;6245439;28;20046;-69
2022/11/29 01:14:16;;;;;;;11.30;5.50;;;;;;;5.09;100.00;101170.00;6245830;28;20061;-70
2022/11/29 01:17:17;;;;;;;13.80;5.10;;;;;;;5.13;100.00;101170.75;6246573;28;20045;-70
2022/11/29 01:20:19;;;;;;;11.68;5.35;;;;;;;5.09;100.00;101170.00;6249953;28;20049;-70
2022/11/29 01:23:21;;;;;;;13.50;6.10;;;;;;;5.11;100.00;101165.59;6250545;28;20045;-70
2022/11/29 01:26:25;;;;;;;14.45;6.20;;;;;;;5.07;100.00;101161.34;6249635;28;20428;-70
2022/11/29 01:29:27;;;;;;;13.00;6.00;;;;;;;5.05;100.00;101169.19;6249690;28;20041;-69
2022/11/29 01:32:28;;;;;;;15.15;6.65;;;;;;;5.05;100.00;101171.81;6249664;28;20049;-70
2022/11/29 01:35:30;;;;;;;11.52;5.72;;;;;;;5.03;100.00;101167.50;6249461;28;20421;-70
2022/11/29 01:38:32;;;;;;;11.10;5.25;;;;;;;5.02;100.00;101177.06;6249908;28;20060;-70
2022/11/29 01:41:36;;;;;;;9.73;5.00;;;;;;;5.04;100.00;101179.63;6249531;28;20056;-69
2022/11/29 01:45:10;;;;;;;14.07;6.20;;;;;;;5.01;100.00;101184.94;6249203;28;20195;-69
2022/11/29 01:48:14;;;;;;;13.20;5.65;;;;;;;4.98;100.00;101180.63;6246282;28;20178;-69
2022/11/29 01:51:15;;;;;;;13.95;5.78;;;;;;;5.00;100.00;101189.28;6240183;28;20183;-70
2022/11/29 01:54:18;;;;;;;13.60;5.95;;;;;;;5.01;100.00;101190.16;6240967;28;20046;-70
2022/11/29 01:57:22;;;;;;;14.55;6.00;;;;;;;5.01;100.00;101192.75;6249483;28;20050;-70
2022/11/29 02:00:23;;;;;;;14.25;5.90;;;;;;;4.97;100.00;101194.56;6249065;28;20057;-70
2022/11/29 02:03:25;;;;;;;10.23;5.38;;;;;;;4.98;100.00;101192.81;6241135;28;20529;-70
2022/11/29 02:06:28;;;;;;;15.25;5.43;;;;;;;4.93;100.00;101192.91;6249043;28;20049;-70
2022/11/29 02:09:29;;;;;;;14.48;5.30;;;;;;;4.93;100.00;101194.66;6249079;28;20120;-69
2022/11/29 02:12:44;;;;;;;15.23;5.72;;;;;;;4.92;100.00;101193.81;6248901;28;20056;-70
2022/11/29 02:15:53;;;;;;;19.85;6.00;;;;;;;4.93;100.00;101200.72;6223978;28;20050;-69
2022/11/29 02:19:02;;;;;;;12.55;6.00;;;;;;;4.92;100.00;101204.22;6224379;28;20520;-70
2022/11/29 02:22:09;;;;;;;14.93;5.70;;;;;;;4.92;100.00;101204.22;6224163;28;20054;-69
2022/11/29 02:25:39;;;;;;;10.07;5.32;;;;;;;4.93;100.00;101205.94;6224227;28;20085;-70
2022/11/29 02:29:29;;;;;;;12.85;6.15;;;;;;;4.91;100.00;101206.88;6223463;28;20056;-70
2022/11/29 02:32:56;;;;;;;;;;;;;;;4.90;100.00;101207.75;6149204;29;20726;-70
2022/11/29 02:36:33;;;;;;;11.90;5.93;;;;;;;4.89;100.00;101209.50;6153593;28;19922;-70
2022/11/29 02:39:57;;;;;;;9.40;5.03;;;;;;;4.90;100.00;101205.13;6210838;28;20045;-70
2022/11/29 02:43:15;;;;;;;12.13;5.72;;;;;;;4.90;100.00;101205.13;6224027;28;20046;-70
2022/11/29 02:46:37;;;;;;;14.75;6.60;;;;;;;4.88;100.00;101207.78;6223585;28;20050;-69
2022/11/29 02:50:03;;;;;;;19.25;5.53;;;;;;;4.89;100.00;101206.91;6223493;28;20049;-69
2022/11/29 02:53:15;;;;;;;15.27;6.20;;;;;;;4.89;100.00;101211.25;6223748;28;20046;-70
2022/11/29 02:56:24;;;;;;;14.57;5.88;;;;;;;4.89;100.00;101204.28;6223599;28;20053;-69
2022/11/29 02:59:45;;;;;;;13.55;5.25;;;;;;;4.88;100.00;101209.53;6223441;28;20057;-70
2022/11/29 03:02:53;;;;;;;12.93;6.13;;;;;;;4.91;100.00;101215.53;6223669;28;20053;-69
2022/11/29 03:06:04;;;;;;;14.90;6.47;;;;;;;4.92;100.00;101213.78;6222946;28;20054;-70
2022/11/29 03:09:11;;;;;;;11.55;4.95;;;;;;;4.92;100.00;101214.66;6223521;28;20046;-69
2022/11/29 03:12:23;;;;;;;12.77;5.32;;;;;;;4.95;100.00;101218.91;6222723;28;20056;-70
2022/11/29 03:15:29;;;;;;;22.45;6.35;;;;;;;4.94;100.00;101220.66;6222840;28;20057;-70
2022/11/29 03:18:39;;;;;;;18.42;5.65;;;;;;;4.95;100.00;101224.13;6223019;28;20057;-70
2022/11/29 03:21:56;;;;;;;14.48;5.60;;;;;;;4.97;100.00;101222.34;6222754;28;20042;-70
2022/11/29 03:25:03;;;;;;;11.88;5.53;;;;;;;4.95;100.00;101216.31;6222511;28;20054;-69
2022/11/29 03:28:12;;;;;;;17.77;7.00;;;;;;;4.93;100.00;101224.16;6222861;28;20049;-70
2022/11/29 03:31:21;;;;;;;18.33;6.87;;;;;;;4.95;100.00;101225.00;6222462;28;20057;-70
2022/11/29 03:34:33;;;;;;;16.02;6.10;;;;;;;4.98;100.00;101229.28;6222347;28;20653;-70
2022/11/29 03:37:47;;;;;;;15.13;6.70;;;;;;;5.00;100.00;101228.38;6222757;28;20061;-69
2022/11/29 03:40:55;;;;;;;13.80;7.38;;;;;;;5.00;100.00;101233.56;6219972;28;20177;-70
2022/11/29 03:44:03;;;;;;;14.68;6.03;;;;;;;4.98;100.00;101235.34;6222382;28;20493;-70
2022/11/29 03:47:09;;;;;;;16.15;6.07;;;;;;;4.96;100.00;101231.06;6222543;28;20050;-69
2022/11/29 03:50:14;;;;;;;13.52;5.72;;;;;;;4.97;100.00;101235.38;6222207;28;20053;-70
2022/11/29 03:53:23;;;;;;;14.88;5.68;;;;;;;4.95;100.00;101243.25;6222218;28;20060;-70
2022/11/29 03:56:30;;;;;;;15.68;6.13;;;;;;;4.92;100.00;101247.66;6222228;28;20065;-70
2022/11/29 03:59:51;;;;;;;11.80;5.78;;;;;;;4.94;100.00;101241.50;6222089;28;20089;-70
2022/11/29 04:03:14;;;;;;;12.93;5.72;;;;;;;4.92;100.00;101245.91;6222447;28;20057;-69
2022/11/29 04:06:30;;;;;;;17.95;6.72;;;;;;;4.95;100.00;101247.56;6221801;28;20057;-70
2022/11/29 04:09:49;;;;;;;17.83;5.95;;;;;;;4.97;100.00;101246.66;6222270;28;20053;-70
2022/11/29 04:13:22;;;;;;;16.73;6.45;;;;;;;4.93;100.00;101246.75;6222260;28;20049;-69
2022/11/29 04:16:55;;;;;;;12.60;6.18;;;;;;;4.95;100.00;101253.66;6221741;28;20061;-69
2022/11/29 04:20:18;;;;;;;15.80;5.93;;;;;;;4.94;100.00;101254.53;6221567;28;20071;-70
2022/11/29 04:23:46;;;;;;;19.75;6.85;;;;;;;4.98;100.00;101260.53;6232739;28;20050;-69
2022/11/29 04:27:19;;;;;;;12.88;6.00;;;;;;;4.99;100.00;101262.22;6221795;28;20050;-69
2022/11/29 04:30:22;;;;;;;15.15;6.03;;;;;;;4.98;100.00;101258.78;6220807;28;20052;-70
2022/11/29 04:33:46;;;;;;;14.35;6.05;;;;;;;5.00;100.00;101264.81;6221968;28;20406;-69
2022/11/29 04:37:14;;;;;;;13.48;6.45;;;;;;;4.98;100.00;101265.72;6221571;28;20506;-69
2022/11/29 04:40:33;;;;;;;16.27;6.97;;;;;;;5.00;100.00;101270.03;6221467;28;20054;-69
2022/11/29 04:43:51;;;;;;;9.50;5.47;;;;;;;4.95;100.00;101264.06;6221701;28;20050;-70
2022/11/29 04:47:15;;;;;;;15.13;7.00;;;;;;;4.96;100.00;101270.13;6224135;28;20052;-69
2022/11/29 04:50:25;;;;;;;11.07;5.18;;;;;;;4.91;100.00;101272.84;6223954;28;20057;-69
2022/11/29 04:53:48;;;;;;;16.08;6.82;;;;;;;4.92;100.00;101276.28;6224141;28;20046;-70
2022/11/29 04:56:52;;;;;;;11.43;5.53;;;;;;;4.92;100.00;101281.50;6226328;28;20457;-69
2022/11/29 05:00:06;;;;;;;14.77;6.90;;;;;;;4.93;100.00;101288.41;6225912;28;20421;-69
2022/11/29 05:03:14;;;;;;;14.80;6.22;;;;;;;4.90;100.00;101286.72;6226392;28;20049;-69
2022/11/29 05:06:25;;;;;;;15.57;6.38;;;;;;;4.90;100.00;101289.31;6226102;28;20704;-70
2022/11/29 05:09:37;;;;;;;15.82;6.50;;;;;;;4.87;100.00;101297.22;6226156;28;20056;-69
2022/11/29 05:12:48;;;;;;;19.83;7.40;;;;;;;4.90;100.00;101299.75;6225576;28;20080;-70
2022/11/29 05:16:13;;;;;;;19.95;7.50;;;;;;;4.91;100.00;101306.69;6225729;28;20425;-70
2022/11/29 05:19:35;;;;;;;17.25;7.65;;;;;;;4.87;100.00;101312.00;6225700;28;20049;-69
2022/11/29 05:22:46;;;;;;;13.45;6.07;;;;;;;4.91;100.00;101301.50;6225497;28;20042;-70
2022/11/29 05:25:54;;;;;;;15.63;6.38;;;;;;;4.90;100.00;101317.97;6225389;28;20058;-70
2022/11/29 05:29:01;;;;;;;16.17;7.18;;;;;;;4.92;100.00;101311.00;6228072;28;20416;-70
2022/11/29 05:32:22;;;;;;;14.52;5.95;;;;;;;4.91;100.00;101324.06;6235813;28;20037;-70
2022/11/29 05:35:34;;;;;;;17.40;5.82;;;;;;;4.89;100.00;101316.25;6235849;28;20054;-69
2022/11/29 05:39:00;;;;;;;15.80;6.97;;;;;;;4.90;100.00;101328.41;6235225;28;20052;-70
2022/11/29 05:42:25;;;;;;;15.38;7.55;;;;;;;4.89;100.00;101334.50;6236722;28;20038;-70
2022/11/29 05:45:31;;;;;;;17.58;6.53;;;;;;;4.89;100.00;101336.25;6236079;28;20049;-70
2022/11/29 05:48:44;;;;;;;14.75;7.13;;;;;;;4.87;100.00;101341.50;6235923;28;20053;-70
2022/11/29 05:51:57;;;;;;;13.27;5.93;;;;;;;4.82;100.00;101332.94;6232061;28;20054;-70
2022/11/29 05:55:16;;;;;;;17.30;7.15;;;;;;;4.83;100.00;101345.91;6235799;28;20052;-69
2022/11/29 05:58:26;;;;;;;24.25;7.82;;;;;;;4.84;100.00;101344.16;6234658;28;20049;-70
2022/11/29 06:01:34;;;;;;;13.60;6.38;;;;;;;4.87;100.00;101356.25;6234199;28;20059;-69
2022/11/29 06:04:51;;;;;;;16.13;7.07;;;;;;;4.84;100.00;101355.41;6234130;28;20060;-70
2022/11/29 06:07:58;;;;;;;15.00;7.50;;;;;;;4.85;100.00;101358.88;6234280;28;20106;-70
2022/11/29 06:11:05;;;;;;;18.75;7.50;;;;;;;4.82;100.00;101358.97;6235257;28;20077;-69
2022/11/29 06:14:17;;;;;;;18.83;6.28;;;;;;;4.79;100.00;101367.69;6233738;28;20045;-70
2022/11/29 06:17:39;;;;;;;13.68;6.50;;;;;;;4.82;100.00;101371.97;6235410;28;20054;-69
2022/11/29 06:20:53;;;;;;;15.15;6.95;;;;;;;4.77;100.00;101366.88;6235141;28;20042;-70
2022/11/29 06:24:21;;;;;;;18.90;6.88;;;;;;;4.77;100.00;101377.28;6234245;28;20398;-69
2022/11/29 06:27:38;;;;;;;13.80;6.13;;;;;;;4.74;100.00;101377.31;6235661;28;20069;-70
2022/11/29 06:30:54;;;;;;;17.52;7.28;;;;;;;4.77;100.00;101374.69;6234431;28;20045;-69
2022/11/29 06:34:01;;;;;;;14.23;6.57;;;;;;;4.77;100.00;101377.28;6233996;28;20054;-69
2022/11/29 06:37:13;;;;;;;17.35;7.72;;;;;;;4.78;100.00;101378.13;6233995;28;20052;-70
2022/11/29 06:40:16;;;;;;;17.42;6.75;;;;;;;4.80;100.00;101387.63;6232762;28;20049;-70
2022/11/29 06:43:18;;;;;;;17.52;7.85;;;;;;;4.80;100.00;101384.16;6234171;28;20046;-69
2022/11/29 06:46:31;;;;;;;19.55;6.45;;;;;;;4.73;100.00;101387.78;6233410;28;20065;-69
2022/11/29 06:49:38;;;;;;;12.25;5.80;;;;;;;4.72;100.00;101396.44;6233074;28;20061;-69
2022/11/29 06:52:50;;;;;;;22.35;8.35;;;;;;;4.73;100.00;101399.06;6232817;28;20046;-70
2022/11/29 06:56:00;;;;;;;15.73;6.85;;;;;;;4.69;100.00;101393.94;6223355;28;20049;-70
2022/11/29 06:59:08;;;;;;;15.32;6.38;;;;;;;4.74;100.00;101398.16;6243031;28;20053;-69
2022/11/29 07:02:24;;;;;;;17.25;7.25;;;;;;;4.75;100.00;101407.69;6235053;28;20449;-69
2022/11/29 07:05:28;;;;;;;14.27;5.53;;;;;;;4.74;100.00;101408.56;6232234;28;20045;-70
2022/11/29 07:08:31;;;;;;;18.30;6.28;;;;;;;4.73;100.00;101406.88;6234030;28;20085;-70
2022/11/29 07:11:33;;;;;;;16.08;6.15;;;;;;;4.74;100.00;101415.53;6232836;28;20426;-69
2022/11/29 07:14:35;;;;;;;16.45;6.97;;;;;;;4.77;100.00;101415.47;6234379;28;20057;-70
2022/11/29 07:17:48;;;;;;;15.88;7.28;;;;;;;4.78;100.00;101415.44;6232301;28;20049;-70
2022/11/29 07:21:02;;;;;;;16.02;7.43;;;;;;;4.77;100.00;101418.09;6233078;28;20041;-69
2022/11/29 07:24:17;;;;;;;17.38;7.20;;;;;;;4.72;100.00;101412.94;6233235;28;20053;-70
2022/11/29 07:27:26;;;;;;;16.58;6.75;;;;;;;4.75;100.00;101419.84;6232317;28;20049;-70
2022/11/29 07:30:34;;;;;;;17.83;6.82;;;;;;;4.74;100.00;101424.19;6233677;28;20057;-69
2022/11/29 07:33:46;;;;;;;22.63;7.30;;;;;;;4.75;100.00;101422.44;6232442;28;20042;-70
2022/11/29 07:36:57;;;;;;;16.98;8.43;;;;;;;4.74;100.00;101431.16;6232857;28;20045;-69
2022/11/29 07:40:11;;;;;;;20.23;7.97;;;;;;;4.73;100.00;101432.91;6236014;28;20049;-69
2022/11/29 07:43:22;;;;;;;13.88;6.88;;;;;;;4.72;100.00;101432.91;6242826;28;20053;-70
2022/11/29 07:46:24;;;;;;;15.15;7.68;;;;;;;4.73;100.00;101432.91;6244448;28;20420;-70
2022/11/29 07:49:26;;;;;;;16.95;5.90;;;;;;;4.78;100.00;101440.63;6246778;28;20412;-69
2022/11/29 07:52:28;;;;;;;16.65;7.35;;;;;;;4.81;100.00;101448.34;6238192;28;20053;-69
2022/11/29 07:55:31;;;;;;;15.43;6.43;;;;;;;4.82;100.00;101443.13;6246517;28;20428;-69
2022/11/29 07:58:33;;;;;;;17.30;7.28;;;;;;;4.80;100.00;101450.09;6245054;28;20048;-69
2022/11/29 08:01:34;;;;;;;25.55;8.00;;;;;;;4.82;100.00;101453.56;6229663;28;20053;-70
2022/11/29 08:04:40;;;;;;;19.45;7.72;;;;;;;4.80;100.00;101463.13;6220408;28;20053;-69
2022/11/29 08:07:42;;;;;;;19.00;7.35;;;;;;;4.80;100.00;101457.06;6220855;28;20050;-69
2022/11/29 08:10:45;;;;;;;16.05;6.32;;;;;;;4.84;100.00;101462.19;6221104;28;20049;-70
2022/11/29 08:13:46;;;;;;;16.30;7.07;;;;;;;4.85;100.00;101457.84;6221006;28;20069;-69
2022/11/29 08:16:48;;;;;;;17.63;7.72;;;;;;;4.83;100.00;101467.44;6222284;28;20050;-70
2022/11/29 08:19:49;;;;;;;21.85;8.48;;;;;;;4.81;100.00;101463.97;6221516;28;20120;-69
2022/11/29 08:22:55;;;;;;;21.92;8.68;;;;;;;4.81;100.00;101462.25;6221885;28;20498;-70
2022/11/29 08:26:00;;;;;;;22.63;8.52;;;;;;;4.82;100.00;101470.94;6221510;28;20060;-70
2022/11/29 08:29:01;;;;;;;18.77;8.70;;;;;;;4.87;100.00;101468.25;6225510;28;20050;-69
2022/11/29 08:32:03;;;;;;;20.52;7.28;;;;;;;4.89;100.00;101475.13;6226494;28;20056;-69
2022/11/29 08:35:05;;;;;;;17.30;7.70;;;;;;;4.91;100.00;101475.13;6226617;28;20054;-70
2022/11/29 08:38:06;;;;;;;14.27;6.93;;;;;;;4.93;100.00;101475.94;6226872;28;20073;-69
2022/11/29 08:41:11;;;;;;;15.93;7.40;;;;;;;4.99;100.00;101475.81;6226111;28;20046;-69
2022/11/29 08:44:12;;;;;;;14.57;7.32;;;;;;;4.93;100.00;101481.16;6243225;28;20527;-70
2022/11/29 08:50:33;;;;;;;17.63;6.93;;;;;;;4.98;100.00;101487.97;6242472;28;20045;-70
2022/11/29 08:53:45;;;;;;;16.85;8.15;;;;;;;5.01;100.00;101492.28;6244874;28;20046;-71
2022/11/29 08:56:48;;;;;;;17.73;7.00;;;;;;;4.99;100.00;101494.03;6244929;28;20128;-70
2022/11/29 08:59:49;;;;;;;23.10;8.25;;;;;;;5.04;100.00;101489.59;6235983;28;20506;-70
2022/11/29 09:02:51;;;;;;;17.17;7.70;;;;;;;5.01;100.00;101489.69;6232904;28;20046;-69
2022/11/29 09:05:53;;;;;;;24.58;8.93;;;;;;;5.04;100.00;101489.59;6246458;28;20069;-69
2022/11/29 09:08:56;;;;;;;16.92;7.20;;;;;;;5.09;100.00;101495.63;6244532;28;20049;-70
2022/11/29 09:11:59;;;;;;;20.48;8.30;;;;;;;5.08;100.00;101502.53;6246881;28;20048;-70
2022/11/29 09:15:00;;;;;;;17.00;8.95;;;;;;;5.03;100.00;101498.31;6225747;28;20049;-69
2022/11/29 09:18:04;;;;;;;18.52;8.07;;;;;;;5.03;100.00;101508.72;6226715;28;20046;-69
2022/11/29 09:21:06;;;;;;;17.27;8.32;;;;;;;5.06;100.00;101512.16;6241493;28;20095;-68
2022/11/29 09:24:09;;;;;;;19.33;8.57;;;;;;;5.07;100.00;101519.06;6244200;28;20049;-69
2022/11/29 09:27:11;;;;;;;16.52;7.45;;;;;;;5.11;100.00;101519.88;6246110;28;20049;-69
2022/11/29 09:30:13;;;;;;;20.40;8.23;;;;;;;5.12;100.00;101525.94;6241171;28;20053;-68
2022/11/29 09:33:15;;;;;;;19.15;8.75;;;;;;;5.13;100.00;101514.63;6228435;28;20425;-68
2022/11/29 09:36:16;;;;;;;21.83;7.32;;;;;;;5.14;100.00;101521.59;6224996;28;20057;-69
2022/11/29 09:39:18;;;;;;;22.88;8.90;;;;;;;5.20;100.00;101522.31;6236203;28;20053;-68
2022/11/29 09:42:36;;;;;;;20.63;8.55;;;;;;;5.21;100.00;101528.38;6236462;28;20041;-69
2022/11/29 09:45:43;;;;;;;17.60;8.63;;;;;;;5.23;100.00;101530.09;6238906;28;20053;-69
2022/11/29 09:49:03;;;;;;;19.13;8.65;;;;;;;5.23;100.00;101529.22;6243221;28;20056;-68
2022/11/29 09:52:14;;;;;;;23.80;8.60;;;;;;;5.27;100.00;101525.69;6242974;28;20052;-69
2022/11/29 09:55:38;;;;;;;26.83;8.77;;;;;;;5.31;100.00;101527.31;6240714;28;20053;-71
2022/11/29 09:58:48;;;;;;;17.40;8.80;;;;;;;5.36;100.00;101538.53;6249577;28;20053;-69
2022/11/29 10:01:54;;;;;;;22.05;8.93;;;;;;;5.35;100.00;101535.03;6248822;28;20056;-68
2022/11/29 10:05:00;;;;;;;17.90;7.75;;;;;;;5.42;100.00;101540.16;6248701;28;20068;-69
2022/11/29 10:08:06;;;;;;;17.65;8.25;;;;;;;5.43;100.00;101537.50;6249039;28;20046;-68
2022/11/29 10:11:18;;;;;;;20.42;9.43;;;;;;;5.44;100.00;101535.75;6248168;28;20055;-71
2022/11/29 10:14:25;;;;;;;19.45;8.35;;;;;;;5.53;100.00;101535.59;6247593;28;20099;-71
2022/11/29 10:17:34;;;;;;;18.77;8.60;;;;;;;5.50;100.00;101538.28;6248498;28;20046;-71
2022/11/29 10:20:39;;;;;;;21.30;9.40;;;;;;;5.48;100.00;101538.28;6248171;28;20709;-68
2022/11/29 10:23:43;;;;;;;18.77;8.10;;;;;;;5.52;100.00;101536.47;6248799;28;20045;-71
2022/11/29 10:26:45;;;;;;;23.40;10.13;;;;;;;5.59;100.00;101538.94;6248750;28;20057;-68
2022/11/29 10:29:50;;;;;;;19.80;9.18;;;;;;;5.62;100.00;101538.00;6248263;28;20140;-69
2022/11/29 10:32:56;;;;;;;23.92;9.85;;;;;;;5.62;100.00;101540.63;6248696;28;20049;-68
2022/11/29 10:36:02;;;;;;;23.50;9.07;;;;;;;5.69;100.00;101543.97;6248457;28;20056;-69
2022/11/29 10:39:06;;;;;;;21.85;8.60;;;;;;;5.73;100.00;101540.41;6248356;28;20100;-69
2022/11/29 10:42:47;;;;;;;21.42;9.55;;;;;;;5.76;100.00;101542.94;6248270;28;20045;-69
2022/11/29 10:45:42;;;;;;;20.05;9.32;;;;;;;5.82;100.00;101548.06;6247698;28;20053;-70
2022/11/29 10:48:44;;;;;;;18.13;9.30;;;;;;;5.78;100.00;101547.25;6248458;28;20061;-69
2022/11/29 10:51:46;;;;;;;31.27;11.55;;;;;;;5.76;100.00;101548.16;6247044;28;20420;-70
2022/11/29 10:54:49;;;;;;;25.40;8.80;;;;;;;5.82;100.00;101538.47;6248012;28;20050;-70
2022/11/29 10:58:12;;;;;;;17.65;8.40;;;;;;;5.84;100.00;101539.28;6247901;28;20049;-71
2022/11/29 11:01:16;;;;;;;18.67;9.30;;;;;;;5.90;100.00;101543.50;6247884;28;20049;-70
2022/11/29 11:04:27;;;;;;;24.55;10.45;;;;;;;5.95;100.00;101533.88;6247217;28;20049;-71
2022/11/29 11:07:32;;;;;;;25.80;10.60;;;;;;;5.96;100.00;101535.59;6247989;28;20132;-70
2022/11/29 11:10:33;;;;;;;22.17;10.45;;;;;;;5.95;100.00;101539.09;6247337;28;20505;-73
2022/11/29 11:13:38;;;;;;;30.25;10.48;;;;;;;5.96;100.00;101537.34;6247530;28;20068;-70
2022/11/29 11:16:40;;;;;;;23.17;9.68;;;;;;;5.96;100.00;101530.38;6247316;28;20152;-69
2022/11/29 11:19:42;;;;;;;23.98;9.52;;;;;;;5.99;100.00;101532.06;6247347;28;20064;-69
2022/11/29 11:22:44;;;;;;;23.95;9.95;;;;;;;6.04;100.00;101535.41;6247270;28;20497;-72
2022/11/29 11:25:48;;;;;;;22.95;9.50;;;;;;;6.04;100.00;101533.69;6247142;28;20053;-69
2022/11/29 11:28:55;;;;;;;25.17;11.57;;;;;;;6.03;100.00;101531.09;6247345;28;20050;-71
2022/11/29 11:31:59;;;;;;;26.15;9.73;;;;;;;6.05;100.00;101534.53;6246978;28;20405;-72
2022/11/29 11:35:02;;;;;;;28.15;11.35;;;;;;;6.09;100.00;101541.41;6246836;28;20053;-69
2022/11/29 11:38:03;;;;;;;29.33;10.73;;;;;;;6.17;100.00;101543.84;6247601;28;20045;-69
2022/11/29 11:41:15;;;;;;;30.17;11.07;;;;;;;6.20;100.00;101542.03;6246710;28;20045;-70
2022/11/29 11:44:31;;;;;;;29.30;11.60;;;;;;;6.24;100.00;101548.88;6246519;28;20056;-73
2022/11/29 11:47:37;;;;;;;24.25;9.45;;;;;;;6.28;100.00;101545.31;6246955;28;20520;-71
2022/11/29 11:50:44;;;;;;;30.20;11.55;;;;;;;6.26;100.00;101541.88;6246524;28;20394;-72
2022/11/29 11:53:50;;;;;;;22.23;9.93;;;;;;;6.23;100.00;101544.56;6246382;28;20049;-70
2022/11/29 11:56:52;;;;;;;24.02;9.55;;;;;;;6.22;100.00;101544.59;6247197;28;20057;-69
2022/11/29 11:59:55;;;;;;;23.55;9.18;;;;;;;6.26;100.00;101541.88;6246262;28;20053;-70
2022/11/29 12:02:59;;;;;;;23.67;9.05;;;;;;;6.27;100.00;101550.59;6246047;28;20045;-71
2022/11/29 12:06:20;;;;;;;21.88;9.77;;;;;;;6.28;100.00;101550.53;6246315;28;20067;-71
2022/11/29 12:09:30;;;;;;;29.08;11.35;;;;;;;6.34;100.00;101544.31;6246951;28;20064;-72
2022/11/29 12:12:35;;;;;;;28.00;10.00;;;;;;;6.39;100.00;101541.59;6246118;28;20045;-72
2022/11/29 12:15:42;;;;;;;28.92;11.32;;;;;;;6.34;100.00;101542.56;6246629;28;20128;-71
2022/11/29 12:18:49;;;;;;;36.33;11.07;;;;;;;6.35;100.00;101554.72;6246362;28;20060;-68
2022/11/29 12:21:59;;;;;;;22.55;9.68;;;;;;;6.37;100.00;101561.69;6245564;28;20041;-70
2022/11/29 12:25:03;;;;;;;;;;;;;;;6.41;100.00;101556.34;6233554;28;20056;-69
2022/11/29 12:28:10;;;;;;;30.05;10.93;;;;;;;6.38;100.00;101558.16;6238376;28;19933;-71
2022/11/29 12:31:24;;;;;;;37.90;12.23;;;;;;;6.39;100.00;101563.34;6246101;28;20053;-71
2022/11/29 12:34:41;;;;;;;27.05;11.35;;;;;;;6.35;100.00;101570.38;6246114;28;20163;-71
2022/11/29 12:37:50;;;;;;;26.65;11.40;;;;;;;6.35;100.00;101570.38;6229945;28;20056;-72
2022/11/29 12:40:59;;;;;;;31.23;12.68;;;;;;;6.34;100.00;101571.28;6228764;28;20386;-70
2022/11/29 12:44:14;;;;;;;35.78;14.40;;;;;;;6.32;100.00;101578.28;6245916;28;20045;-72
2022/11/29 12:47:24;;;;;;;37.05;13.70;;;;;;;6.34;100.00;101571.28;6246043;28;20541;-72
2022/11/29 12:50:37;;;;;;;37.08;14.05;;;;;;;6.28;100.00;101576.66;6245821;28;20049;-71
2022/11/29 12:53:53;;;;;;;36.17;12.52;;;;;;;6.28;100.00;101587.09;6246505;28;20045;-71
2022/11/29 12:57:04;;;;;;;31.13;13.15;;;;;;;6.32;100.00;101585.28;6229839;28;20046;-72
2022/11/29 13:00:09;;;;;;;31.15;12.52;;;;;;;6.31;100.00;101592.25;6221294;28;20137;-69
2022/11/29 13:03:22;;;;;;;32.75;12.77;;;;;;;6.28;100.00;101586.22;6224228;28;20050;-71
2022/11/29 13:06:31;;;;;;;29.67;11.35;;;;;;;6.24;100.00;101595.03;6245775;28;20053;-71
2022/11/29 13:09:57;;;;;;;36.13;13.88;;;;;;;6.22;100.00;101591.56;6246071;28;20045;-72
2022/11/29 13:13:02;;;;;;;35.15;12.93;;;;;;;6.20;100.00;101583.78;6246187;28;20046;-70
2022/11/29 13:16:09;;;;;;;33.00;13.63;;;;;;;6.14;100.00;101589.16;6250553;28;20049;-71
2022/11/29 13:19:16;;;;;;;35.03;14.73;;;;;;;6.13;100.00;101590.00;6249873;28;20408;-74
2022/11/29 13:22:28;;;;;;;26.48;11.70;;;;;;;6.13;100.00;101586.53;6250269;28;20052;-69
2022/11/29 13:25:35;;;;;;;30.38;12.75;;;;;;;6.15;100.00;101595.22;6249900;28;20046;-69
2022/11/29 13:28:39;;;;;;;35.05;13.15;;;;;;;6.09;100.00;101597.06;6250456;28;20049;-72
2022/11/29 13:31:41;;;;;;;28.65;13.20;;;;;;;6.09;100.00;101601.44;6249651;28;20049;-72
2022/11/29 13:34:46;;;;;;;29.55;12.88;;;;;;;6.04;100.00;101604.13;6247852;28;20056;-72
2022/11/29 13:37:53;;;;;;;30.77;13.48;;;;;;;6.04;100.00;101595.44;6242547;28;20421;-71
2022/11/29 13:41:01;;;;;;;26.42;11.63;;;;;;;6.04;100.00;101598.91;6241392;28;20054;-72
2022/11/29 13:44:13;;;;;;;30.95;12.45;;;;;;;6.03;100.00;101596.31;6240256;28;20042;-72
2022/11/29 13:47:16;;;;;;;29.58;12.55;;;;;;;6.03;100.00;101606.75;6225046;28;20557;-71
2022/11/29 13:50:39;;;;;;;30.65;12.60;;;;;;;6.05;100.00;101610.22;6224763;28;20050;-71
2022/11/29 13:53:43;;;;;;;30.98;11.82;;;;;;;6.07;100.00;101609.28;6225405;28;20057;-71
2022/11/29 13:56:45;;;;;;;34.38;12.25;;;;;;;6.05;100.00;101610.22;6241585;28;20148;-71
2022/11/29 13:59:49;;;;;;;30.98;11.93;;;;;;;6.08;100.00;101610.13;6241930;28;20060;-72
2022/11/29 14:02:51;;;;;;;33.55;11.98;;;;;;;6.10;100.00;101617.03;6240531;28;20130;-71
2022/11/29 14:05:54;;;;;;;25.33;11.75;;;;;;;6.08;100.00;101615.34;6243135;28;20042;-71
2022/11/29 14:09:21;;;;;;;30.25;12.18;;;;;;;6.03;100.00;101618.06;6243895;28;20052;-71
2022/11/29 14:12:38;;;;;;;33.75;11.50;;;;;;;6.03;100.00;101615.44;6246037;28;20052;-71
2022/11/29 14:15:41;;;;;;;33.22;11.02;;;;;;;6.03;100.00;101623.28;6247087;28;20049;-71
2022/11/29 14:19:04;;;;;;;33.25;12.20;;;;;;;6.00;100.00;101625.09;6240900;28;20489;-71
2022/11/29 14:22:32;;;;;;;26.27;10.65;;;;;;;6.01;100.00;101621.59;6241585;28;20046;-76
2022/11/29 14:25:36;;;;;;;34.95;10.95;;;;;;;6.00;100.00;101622.50;6243965;28;20092;-77
2022/11/29 14:28:38;;;;;;;31.95;12.82;;;;;;;5.98;100.00;101626.88;6238103;28;20045;-74
2022/11/29 14:31:53;;;;;;;32.08;11.10;;;;;;;6.02;100.00;101629.38;6236993;28;20054;-71